Time;durP1;ratioP1;P1;durP2;ratioP2;P2;SDS_P1;SDS_P2;PMS_P1;PMS_P2;Temp;Humidity;BMP_temperature;BMP_pressure;BME280_temperature;BME280_humidity;BME280_pressure;Samples;Min_cycle;Max_cycle;Signal;HPM_P1;HPM_P2
2022/02/16 00:00:23;;;;;;;;;;;;;;;0.72;100.00;95694.75;1022816;29;20296;-75
2022/02/16 00:00:56;;;;;;;;;;;;;;;0.78;100.00;95686.22;1022661;29;19917;-75
2022/02/16 00:01:28;;;;;;;;;;;;;;;0.73;100.00;95688.59;1018626;29;19922;-75
2022/02/16 00:01:58;;;;;;;;;;;;;;;0.67;100.00;95685.84;1026748;28;19918;-75
2022/02/16 00:02:28;;;;;;;;;;;;;;;0.72;100.00;95692.19;1022895;29;20191;-75
2022/02/16 00:02:59;;;;;;;;;;;;;;;0.72;100.00;95692.97;1022584;28;19914;-75
2022/02/16 00:03:29;;;;;;;;;;;;;;;0.78;100.00;95686.22;1022714;28;19911;-75
2022/02/16 00:03:59;;;;;;;;;;;;;;;0.82;100.00;95689.97;1026968;28;19960;-75
2022/02/16 00:04:33;;;;;;;;;;;;;;;0.77;100.00;95687.19;1031345;28;19913;-75
2022/02/16 00:05:04;;;;;;;;;;;;;;;0.79;100.00;95688.56;1035220;28;19917;-75
2022/02/16 00:05:37;;;;;;;;;;;;;;;0.75;100.00;95684.03;1034735;28;19968;-76
2022/02/16 00:06:07;;;;;;;;;;;;;;;0.70;100.00;95689.78;1035504;28;19920;-75
2022/02/16 00:06:38;;;;;;;;;;;;;;;0.70;100.00;95684.63;1030333;28;20237;-75
2022/02/16 00:07:11;;;;;;;;;;;;;;;0.84;100.00;95685.38;1027274;28;19910;-74
2022/02/16 00:07:42;;;;;;;;;;;;;;;0.81;100.00;95680.63;1026814;28;19936;-75
2022/02/16 00:08:12;;;;;;;;;;;;;;;0.79;100.00;95683.41;1023781;28;19918;-75
2022/02/16 00:08:43;;;;;;;;;;;;;;;0.84;100.00;95675.03;1031348;28;19906;-75
2022/02/16 00:09:16;;;;;;;;;;;;;;;0.79;100.00;95677.47;1034691;28;20272;-75
2022/02/16 00:09:47;;;;;;;;;;;;;;;0.75;100.00;95678.88;1027421;28;19914;-75
2022/02/16 00:10:20;;;;;;;;;;;;;;;0.84;100.00;95675.03;1027152;28;20001;-75
2022/02/16 00:10:50;;;;;;;;;;;;;;;0.68;100.00;95653.84;1030888;28;19983;-75
2022/02/16 00:11:21;;;;;;;;;;;;;;;0.83;100.00;95682.00;1026836;28;20403;-75
2022/02/16 00:11:51;;;;;;;;;;;;;;;0.74;100.00;95675.50;1023219;28;20428;-75
2022/02/16 00:12:24;;;;;;;;;;;;;;;0.72;100.00;95672.31;1026911;28;19914;-74
2022/02/16 00:12:55;;;;;;;;;;;;;;;0.67;100.00;95675.50;1031347;28;20287;-75
2022/02/16 00:13:25;;;;;;;;;;;;;;;0.63;100.00;95679.47;1030958;28;19925;-76
2022/02/16 00:13:55;;;;;;;;;;;;;;;0.66;100.00;95676.47;1030932;28;19914;-75
2022/02/16 00:14:26;;;;;;;;;;;;;;;0.60;100.00;95669.53;1026987;28;19961;-75
2022/02/16 00:14:56;;;;;;;;;;;;;;;0.64;100.00;95670.75;1026898;28;19914;-75
2022/02/16 00:15:28;;;;;;;;;;;;;;;0.66;100.00;95668.72;1026688;28;19933;-75
2022/02/16 00:15:59;;;;;;;;;;;;;;;0.72;100.00;95674.09;1034877;28;20383;-75
2022/02/16 00:16:30;;;;;;;;;;;;;;;0.69;100.00;95668.34;1030513;28;19916;-75
2022/02/16 00:17:00;;;;;;;;;;;;;;;0.69;100.00;95668.34;1025850;28;19914;-75
2022/02/16 00:17:31;;;;;;;;;;;;;;;0.64;100.00;95664.78;1026789;28;19918;-76
2022/02/16 00:18:03;;;;;;;;;;;;;;;0.59;100.00;95662.78;1031011;28;19976;-76
2022/02/16 00:18:33;;;;;;;;;;;;;;;0.58;100.00;95666.38;1030720;28;20008;-76
2022/02/16 00:19:04;;;;;;;;;;;;;;;0.63;100.00;95674.28;1023106;28;19910;-75
2022/02/16 00:19:34;;;;;;;;;;;;;;;0.59;100.00;95657.63;1022895;28;19914;-75
2022/02/16 00:20:05;;;;;;;;;;;;;;;0.59;100.00;95667.97;1022992;28;20432;-75
2022/02/16 00:20:35;;;;;;;;;;;;;;;0.58;100.00;95666.38;1027071;28;19914;-75
2022/02/16 00:21:06;;;;;;;;;;;;;;;0.58;100.00;95661.22;1027007;28;19922;-75
2022/02/16 00:21:36;;;;;;;;;;;;;;;0.55;100.00;95661.63;1027070;28;20324;-75
2022/02/16 00:22:06;;;;;;;;;;;;;;;0.51;100.00;95664.81;1026916;28;20021;-75
2022/02/16 00:22:37;;;;;;;;;;;;;;;0.48;100.00;95666.00;1026965;28;20420;-74
2022/02/16 00:23:07;;;;;;;;;;;;;;;0.52;100.00;95667.19;1030680;28;19938;-75
2022/02/16 00:23:40;;;;;;;;;;;;;;;0.52;100.00;95672.34;1029133;28;20307;-75
2022/02/16 00:24:10;;;;;;;;;;;;;;;0.55;100.00;95661.63;1030904;28;20370;-74
2022/02/16 00:24:41;;;;;;;;;;;;;;;0.55;100.00;95658.25;1031519;28;19925;-75
2022/02/16 00:25:11;;;;;;;;;;;;;;;0.54;100.00;95659.22;1034705;28;20367;-76
2022/02/16 00:25:41;;;;;;;;;;;;;;;0.53;100.00;95671.34;1034533;28;20133;-74
2022/02/16 00:26:12;;;;;;;;;;;;;;;0.58;100.00;95666.38;1031041;28;20008;-75
2022/02/16 00:26:43;;;;;;;;;;;;;;;0.53;100.00;95661.00;1026815;28;20174;-75
2022/02/16 00:27:13;;;;;;;;;;;;;;;0.52;100.00;95663.81;1030800;28;20024;-74
2022/02/16 00:27:43;;;;;;;;;;;;;;;0.55;100.00;95663.41;1030767;28;20185;-75
2022/02/16 00:28:17;;;;;;;;;;;;;;;0.50;100.00;95666.56;1030738;28;19914;-75
2022/02/16 00:28:47;;;;;;;;;;;;;;;0.53;100.00;95666.19;1026808;28;19906;-75
2022/02/16 00:29:18;;;;;;;;;;;;;;;0.50;100.00;95661.41;1027008;28;20388;-75
2022/02/16 00:29:48;;;;;;;;;;;;;;;0.49;100.00;95657.25;1027092;28;20533;-75
2022/02/16 00:30:21;;;;;;;;;;;;;;;0.50;100.00;95656.25;1030786;28;19980;-76
2022/02/16 00:30:52;;;;;;;;;;;;;;;0.55;100.00;95655.66;1039132;28;19972;-75
2022/02/16 00:31:22;;;;;;;;;;;;;;;0.56;100.00;95659.81;1039480;28;19948;-76
2022/02/16 00:31:53;;;;;;;;;;;;;;;0.50;100.00;95653.66;1034866;28;19909;-76
2022/02/16 00:32:23;;;;;;;;;;;;;;;0.49;100.00;95648.72;1022786;28;20336;-75
2022/02/16 00:32:53;;;;;;;;;;;;;;;0.46;100.00;95657.66;1022870;29;19906;-76
2022/02/16 00:33:24;;;;;;;;;;;;;;;0.44;100.00;95654.50;1026832;28;19914;-75
2022/02/16 00:33:57;;;;;;;;;;;;;;;0.40;100.00;95650.72;1027050;28;19911;-75
2022/02/16 00:34:27;;;;;;;;;;;;;;;0.44;100.00;95646.75;1026838;28;19911;-75
2022/02/16 00:34:57;;;;;;;;;;;;;;;0.41;100.00;95644.56;1027298;28;19992;-75
2022/02/16 00:35:28;;;;;;;;;;;;;;;0.38;100.00;95639.81;1031690;28;19957;-75
2022/02/16 00:35:58;;;;;;;;;;;;;;;0.41;100.00;95650.53;1034890;28;20411;-75
2022/02/16 00:36:28;;;;;;;;;;;;;;;0.26;100.00;95618.19;1035107;28;20488;-75
2022/02/16 00:36:59;;;;;;;;;;;;;;;0.43;100.00;95645.16;1034682;28;19960;-75
2022/02/16 00:37:29;;;;;;;;;;;;;;;0.48;100.00;95642.75;1026903;28;19914;-75
2022/02/16 00:37:59;;;;;;;;;;;;;;;0.48;100.00;95642.75;1022820;29;19914;-74
2022/02/16 00:38:29;;;;;;;;;;;;;;;0.47;100.00;95641.19;1022753;28;20165;-75
2022/02/16 00:39:00;;;;;;;;;;;;;;;0.42;100.00;95641.78;1025059;28;20163;-75
2022/02/16 00:39:30;;;;;;;;;;;;;;;0.45;100.00;95640.59;1022942;29;19971;-75
2022/02/16 00:40:01;;;;;;;;;;;;;;;0.49;100.00;95633.22;1022786;29;19911;-75
2022/02/16 00:40:31;;;;;;;;;;;;;;;0.46;100.00;95639.59;1026604;28;19910;-75
2022/02/16 00:41:01;;;;;;;;;;;;;;;0.41;100.00;95640.19;1026897;28;19933;-73
2022/02/16 00:41:32;;;;;;;;;;;;;;;0.41;100.00;95639.41;1027148;28;20403;-75
2022/02/16 00:42:02;;;;;;;;;;;;;;;0.42;100.00;95635.81;1022414;28;19911;-76
2022/02/16 00:42:33;;;;;;;;;;;;;;;0.40;100.00;95640.38;1026694;28;20319;-75
2022/02/16 00:43:03;;;;;;;;;;;;;;;0.37;100.00;95638.19;1022888;28;19965;-75
2022/02/16 00:43:33;;;;;;;;;;;;;;;0.39;100.00;95637.00;1027000;28;20281;-75
2022/02/16 00:44:04;;;;;;;;;;;;;;;0.50;100.00;95643.34;1039019;28;20332;-75
2022/02/16 00:44:34;;;;;;;;;;;;;;;0.51;100.00;95639.78;1034790;28;19920;-75
2022/02/16 00:45:05;;;;;;;;;;;;;;;0.52;100.00;95641.38;1026854;28;19914;-75
2022/02/16 00:45:35;;;;;;;;;;;;;;;0.54;100.00;95635.97;1026333;28;19910;-76
2022/02/16 00:46:06;;;;;;;;;;;;;;;0.55;100.00;95640.19;1026713;28;19922;-75
2022/02/16 00:46:40;;;;;;;;;;;;;;;0.55;100.00;95638.38;1027086;28;19910;-75
2022/02/16 00:47:10;;;;;;;;;;;;;;;0.58;100.00;95635.41;1030595;28;19910;-75
2022/02/16 00:47:40;;;;;;;;;;;;;;;0.60;100.00;95638.56;1034714;28;20419;-75
2022/02/16 00:48:11;;;;;;;;;;;;;;;0.54;100.00;95641.97;1034372;28;19921;-75
2022/02/16 00:48:41;;;;;;;;;;;;;;;0.60;100.00;95641.13;1034383;28;20189;-75
2022/02/16 00:49:12;;;;;;;;;;;;;;;0.56;100.00;95634.78;1034838;28;20354;-75
2022/02/16 00:49:42;;;;;;;;;;;;;;;0.53;100.00;95635.19;1030687;28;20170;-75
2022/02/16 00:50:13;;;;;;;;;;;;;;;0.53;100.00;95627.44;1030993;28;19961;-76
2022/02/16 00:50:43;;;;;;;;;;;;;;;0.47;100.00;95633.44;1030620;28;19910;-76
2022/02/16 00:51:15;;;;;;;;;;;;;;;0.49;100.00;95631.44;1026716;28;19940;-76
2022/02/16 00:51:45;;;;;;;;;;;;;;;0.52;100.00;95620.72;1027079;28;19964;-75
2022/02/16 00:52:17;;;;;;;;;;;;;;;0.47;100.00;95623.91;1026810;28;20348;-76
2022/02/16 00:52:48;;;;;;;;;;;;;;;0.49;100.00;95623.69;1026561;28;20057;-74
2022/02/16 00:53:18;;;;;;;;;;;;;;;0.46;100.00;95622.31;1027063;28;19988;-76
2022/02/16 00:53:49;;;;;;;;;;;;;;;0.45;100.00;95619.94;1030920;28;19910;-75
2022/02/16 00:54:19;;;;;;;;;;;;;;;0.42;100.00;95618.53;1022890;28;19910;-76
2022/02/16 00:54:50;;;;;;;;;;;;;;;0.41;100.00;95621.34;1026843;28;20326;-75
2022/02/16 00:55:20;;;;;;;;;;;;;;;0.41;100.00;95618.75;1026602;28;19954;-76
2022/02/16 00:55:52;;;;;;;;;;;;;;;0.49;100.00;95617.75;1027000;28;20009;-75
2022/02/16 00:56:22;;;;;;;;;;;;;;;0.50;100.00;95620.09;1034590;28;19913;-75
2022/02/16 00:56:52;;;;;;;;;;;;;;;0.55;100.00;95620.31;1030688;28;20426;-75
2022/02/16 00:57:23;;;;;;;;;;;;;;;0.56;100.00;95618.53;1027030;28;19920;-75
2022/02/16 00:57:53;;;;;;;;;;;;;;;0.64;100.00;95613.94;1030691;28;19914;-75
2022/02/16 00:58:24;;;;;;;;;;;;;;;0.58;100.00;95614.75;1030403;28;19933;-75
2022/02/16 00:58:54;;;;;;;;;;;;;;;0.59;100.00;95612.94;1034560;28;20158;-75
2022/02/16 00:59:28;;;;;;;;;;;;;;;0.62;100.00;95621.09;1026726;28;19917;-75
2022/02/16 00:59:58;;;;;;;;;;;;;;;0.56;100.00;95618.53;1029490;28;20300;-75
2022/02/16 01:00:29;;;;;;;;;;;;;;;0.55;100.00;95620.31;1026829;28;19941;-76
2022/02/16 01:00:59;;;;;;;;;;;;;;;0.52;100.00;95612.19;1022684;28;19915;-75
2022/02/16 01:01:32;;;;;;;;;;;;;;;0.49;100.00;95613.38;1023935;28;19933;-75
2022/02/16 01:02:03;;;;;;;;;;;;;;;0.46;100.00;95621.50;1031257;28;19965;-75
2022/02/16 01:02:33;;;;;;;;;;;;;;;0.49;100.00;95610.78;1023475;28;19918;-76
2022/02/16 01:03:04;;;;;;;;;;;;;;;0.53;100.00;95606.81;1022451;29;19938;-76
2022/02/16 01:03:36;;;;;;;;;;;;;;;0.58;100.00;95617.31;1018834;29;19921;-75
2022/02/16 01:04:06;;;;;;;;;;;;;;;0.59;100.00;95616.31;1018802;29;19966;-75
2022/02/16 01:04:37;;;;;;;;;;;;;;;0.58;100.00;95609.59;1023246;28;19917;-75
2022/02/16 01:05:07;;;;;;;;;;;;;;;0.58;100.00;95612.16;1022652;28;19914;-75
2022/02/16 01:05:38;;;;;;;;;;;;;;;0.55;100.00;95611.78;1030889;28;20629;-75
2022/02/16 01:06:08;;;;;;;;;;;;;;;0.52;100.00;95605.22;1022742;28;19999;-75
2022/02/16 01:06:39;;;;;;;;;;;;;;;0.49;100.00;95610.78;1030676;28;19914;-75
2022/02/16 01:07:09;;;;;;;;;;;;;;;0.47;100.00;95610.22;1026692;28;19914;-75
2022/02/16 01:07:39;;;;;;;;;;;;;;;0.47;100.00;95605.06;1027005;28;20126;-75
2022/02/16 01:08:10;;;;;;;;;;;;;;;0.51;100.00;95618.34;1018622;29;19915;-75
2022/02/16 01:08:41;;;;;;;;;;;;;;;0.49;100.00;95610.78;1022682;29;20004;-76
2022/02/16 01:09:11;;;;;;;;;;;;;;;0.49;100.00;95610.78;1031393;28;19957;-75
2022/02/16 01:09:41;;;;;;;;;;;;;;;0.48;100.00;95614.38;1032090;28;19914;-74
2022/02/16 01:10:12;;;;;;;;;;;;;;;0.43;100.00;95616.75;1024025;29;20554;-75
2022/02/16 01:10:42;;;;;;;;;;;;;;;0.42;100.00;95615.19;1028157;28;19911;-75
2022/02/16 01:11:14;;;;;;;;;;;;;;;0.41;100.00;95613.59;1036418;28;19964;-76
2022/02/16 01:11:44;;;;;;;;;;;;;;;0.40;100.00;95612.00;1036011;28;19913;-76
2022/02/16 01:12:15;;;;;;;;;;;;;;;0.39;100.00;95610.41;1040418;28;19909;-76
2022/02/16 01:12:45;;;;;;;;;;;;;;;0.43;100.00;95616.75;1028190;28;19906;-75
2022/02/16 01:13:16;;;;;;;;;;;;;;;0.41;100.00;95611.03;1024149;28;19907;-75
2022/02/16 01:13:46;;;;;;;;;;;;;;;0.41;100.00;95611.03;1028072;28;19918;-76
2022/02/16 01:14:16;;;;;;;;;;;;;;;0.47;100.00;95612.81;1024282;28;19910;-76
2022/02/16 01:14:47;;;;;;;;;;;;;;;0.42;100.00;95610.00;1032111;28;19910;-75
2022/02/16 01:15:17;;;;;;;;;;;;;;;0.44;100.00;95618.38;1036114;28;19928;-75
2022/02/16 01:15:47;;;;;;;;;;;;;;;0.57;100.00;95613.16;1027816;28;19910;-75
2022/02/16 01:16:18;;;;;;;;;;;;;;;0.60;100.00;95607.56;1024113;28;20005;-75
2022/02/16 01:16:48;;;;;;;;;;;;;;;0.54;100.00;95613.56;1026600;28;20707;-75
2022/02/16 01:17:18;;;;;;;;;;;;;;;0.52;100.00;95605.22;1024302;28;19990;-75
2022/02/16 01:17:51;;;;;;;;;;;;;;;0.52;100.00;95610.38;1032216;28;19910;-75
2022/02/16 01:18:22;;;;;;;;;;;;;;;0.49;100.00;95600.47;1036675;28;20292;-74
2022/02/16 01:18:52;;;;;;;;;;;;;;;0.54;100.00;95603.25;1040330;28;19920;-76
2022/02/16 01:19:22;;;;;;;;;;;;;;;0.55;100.00;95609.19;1032055;28;19960;-75
2022/02/16 01:19:53;;;;;;;;;;;;;;;0.51;100.00;95603.66;1031866;28;20447;-75
2022/02/16 01:20:23;;;;;;;;;;;;;;;0.50;100.00;95603.84;1032023;28;20161;-75
2022/02/16 01:20:54;;;;;;;;;;;;;;;0.55;100.00;95598.88;1032263;28;20000;-75
2022/02/16 01:21:24;;;;;;;;;;;;;;;0.54;100.00;95595.50;1031866;28;20005;-76
2022/02/16 01:21:54;;;;;;;;;;;;;;;0.59;100.00;95597.47;1033379;28;19910;-74
2022/02/16 01:22:25;;;;;;;;;;;;;;;0.63;100.00;95602.00;1036000;28;19959;-75
2022/02/16 01:22:55;;;;;;;;;;;;;;;0.57;100.00;95597.69;1032284;28;19914;-75
2022/02/16 01:23:25;;;;;;;;;;;;;;;0.60;100.00;95604.19;1036147;28;20591;-75
2022/02/16 01:23:56;;;;;;;;;;;;;;;0.54;100.00;95594.69;1031925;28;19910;-75
2022/02/16 01:24:29;;;;;;;;;;;;;;;0.57;100.00;95595.09;1023657;29;20339;-75
2022/02/16 01:24:59;;;;;;;;;;;;;;;0.56;100.00;95590.91;1019913;29;19910;-76
2022/02/16 01:25:30;;;;;;;;;;;;;;;0.58;100.00;95588.94;1022955;28;19954;-75
2022/02/16 01:26:00;;;;;;;;;;;;;;;0.59;100.00;95590.50;1029141;28;20276;-75
2022/02/16 01:26:30;;;;;;;;;;;;;;;0.64;100.00;95592.50;1031907;28;19977;-75
2022/02/16 01:27:01;;;;;;;;;;;;;;;0.56;100.00;95590.91;1031979;28;19914;-76
2022/02/16 01:27:36;;;;;;;;;;;;;;;0.55;100.00;95585.97;1032128;28;19956;-75
2022/02/16 01:28:07;;;;;;;;;;;;;;;0.56;100.00;95585.75;1029920;28;19925;-75
2022/02/16 01:28:37;;;;;;;;;;;;;;;0.59;100.00;95587.94;1032953;28;19918;-75
2022/02/16 01:29:08;;;;;;;;;;;;;;;0.65;100.00;95588.91;1032119;28;19921;-75
2022/02/16 01:29:38;;;;;;;;;;;;;;;0.64;100.00;95593.28;1032338;28;19926;-75
2022/02/16 01:30:08;;;;;;;;;;;;;;;0.62;100.00;95590.09;1020056;28;20369;-75
2022/02/16 01:30:41;;;;;;;;;;;;;;;0.61;100.00;95598.84;1024139;28;19910;-76
2022/02/16 01:31:12;;;;;;;;;;;;;;;0.61;100.00;95592.91;1028159;28;19906;-75
2022/02/16 01:31:42;;;;;;;;;;;;;;;0.57;100.00;95587.34;1028164;28;20778;-76
2022/02/16 01:32:13;;;;;;;;;;;;;;;0.53;100.00;95593.91;1027954;28;20163;-75
2022/02/16 01:32:44;;;;;;;;;;;;;;;0.51;100.00;95587.38;1032149;28;20001;-75
2022/02/16 01:33:14;;;;;;;;;;;;;;;0.49;100.00;95589.34;1028296;28;19926;-76
2022/02/16 01:33:44;;;;;;;;;;;;;;;0.51;100.00;95592.53;1031265;28;19910;-76
2022/02/16 01:34:15;;;;;;;;;;;;;;;0.60;100.00;95592.09;1028017;28;19913;-75
2022/02/16 01:34:45;;;;;;;;;;;;;;;0.58;100.00;95588.13;1035693;28;20058;-74
2022/02/16 01:35:16;;;;;;;;;;;;;;;0.58;100.00;95591.50;1036043;28;20003;-75
2022/02/16 01:35:49;;;;;;;;;;;;;;;0.55;100.00;95589.34;1032062;28;19957;-75
2022/02/16 01:36:19;;;;;;;;;;;;;;;0.61;100.00;95593.69;1032163;28;19968;-73
2022/02/16 01:36:49;;;;;;;;;;;;;;;0.56;100.00;95588.34;1031955;28;19941;-76
2022/02/16 01:37:20;;;;;;;;;;;;;;;0.54;100.00;95585.19;1032053;28;19914;-75
2022/02/16 01:37:50;;;;;;;;;;;;;;;0.56;100.00;95590.13;1028078;28;19906;-75
2022/02/16 01:38:20;;;;;;;;;;;;;;;0.53;100.00;95581.00;1028210;28;19933;-75
2022/02/16 01:38:51;;;;;;;;;;;;;;;0.53;100.00;95586.16;1028059;28;19918;-75
2022/02/16 01:39:22;;;;;;;;;;;;;;;0.60;100.00;95586.91;1024115;29;19914;-74
2022/02/16 01:39:52;;;;;;;;;;;;;;;0.57;100.00;95582.19;1028253;28;20434;-75
2022/02/16 01:40:23;;;;;;;;;;;;;;;0.53;100.00;95591.31;1028241;28;20009;-75
2022/02/16 01:40:56;;;;;;;;;;;;;;;0.58;100.00;95582.97;1024395;28;19941;-76
2022/02/16 01:41:26;;;;;;;;;;;;;;;0.59;100.00;95590.50;1029398;28;19961;-75
2022/02/16 01:41:56;;;;;;;;;;;;;;;0.56;100.00;95585.75;1028369;28;19914;-75
2022/02/16 01:42:27;;;;;;;;;;;;;;;0.54;100.00;95586.94;1021915;28;19920;-74
2022/02/16 01:42:57;;;;;;;;;;;;;;;0.59;100.00;95579.41;1027681;28;19910;-75
2022/02/16 01:43:28;;;;;;;;;;;;;;;0.57;100.00;95582.19;1023810;28;19910;-75
2022/02/16 01:43:59;;;;;;;;;;;;;;;0.61;100.00;95582.56;1025154;28;20005;-75
2022/02/16 01:44:30;;;;;;;;;;;;;;;0.55;100.00;95579.00;1024288;28;19929;-76
2022/02/16 01:45:01;;;;;;;;;;;;;;;0.60;100.00;95579.19;1031863;28;20184;-76
2022/02/16 01:45:31;;;;;;;;;;;;;;;0.65;100.00;95578.59;1032232;28;19966;-76
2022/02/16 01:46:01;;;;;;;;;;;;;;;0.67;100.00;95582.56;1035934;28;19917;-74
2022/02/16 01:46:33;;;;;;;;;;;;;;;0.66;100.00;95580.94;1036298;28;20402;-76
2022/02/16 01:47:04;;;;;;;;;;;;;;;0.63;100.00;95576.19;1027687;28;19906;-75
2022/02/16 01:47:38;;;;;;;;;;;;;;;0.63;100.00;95572.81;1024474;28;20002;-75
2022/02/16 01:48:08;;;;;;;;;;;;;;;0.60;100.00;95576.59;1025490;28;19954;-76
2022/02/16 01:48:39;;;;;;;;;;;;;;;0.64;100.00;95574.44;1032102;28;19917;-75
2022/02/16 01:49:11;;;;;;;;;;;;;;;0.58;100.00;95573.44;1028860;28;19910;-75
2022/02/16 01:49:42;;;;;;;;;;;;;;;0.66;100.00;95573.19;1024740;28;20405;-75
2022/02/16 01:50:12;;;;;;;;;;;;;;;0.62;100.00;95572.03;1024200;29;19946;-76
2022/02/16 01:50:42;;;;;;;;;;;;;;;0.63;100.00;95570.25;1024540;28;19962;-75
2022/02/16 01:51:13;;;;;;;;;;;;;;;0.60;100.00;95566.28;1024118;28;20199;-76
2022/02/16 01:51:44;;;;;;;;;;;;;;;0.59;100.00;95569.84;1028237;28;19910;-75
2022/02/16 01:52:15;;;;;;;;;;;;;;;0.61;100.00;95564.50;1028066;28;19914;-76
2022/02/16 01:52:45;;;;;;;;;;;;;;;0.58;100.00;95565.69;1024342;28;19911;-75
2022/02/16 02:58:15;;;;;;;;;;;;;;;1.41;100.00;95471.84;1035922;28;19912;-75
2022/02/16 02:58:45;;;;;;;;;;;;;;;1.50;100.00;95478.31;1035185;28;20470;-75
2022/02/16 02:59:15;;;;;;;;;;;;;;;1.45;100.00;95472.22;1035504;28;19921;-75
2022/02/16 02:59:49;;;;;;;;;;;;;;;1.42;100.00;95474.19;1029435;28;20383;-75
2022/02/16 03:00:19;;;;;;;;;;;;;;;1.44;100.00;95468.00;1032757;28;19918;-75
2022/02/16 03:00:52;;;;;;;;;;;;;;;1.42;100.00;95476.00;1031008;28;20086;-75
2022/02/16 03:01:23;;;;;;;;;;;;;;;1.42;100.00;95470.81;1017620;29;19926;-75
2022/02/16 03:01:53;;;;;;;;;;;;;;;1.40;100.00;95476.19;1015595;29;19977;-75
2022/02/16 03:02:23;;;;;;;;;;;;;;;1.40;100.00;95478.00;1027375;28;19920;-75
2022/02/16 03:02:54;;;;;;;;;;;;;;;1.39;100.00;95481.59;1027442;28;20051;-75
2022/02/16 03:03:24;;;;;;;;;;;;;;;1.38;100.00;95480.81;1027273;28;20472;-76
2022/02/16 03:03:55;;;;;;;;;;;;;;;1.41;100.00;95479.59;1031098;28;19918;-75
2022/02/16 03:04:25;;;;;;;;;;;;;;;1.42;100.00;95479.38;1023363;29;19918;-75
2022/02/16 03:04:55;;;;;;;;;;;;;;;1.44;100.00;95480.94;1024738;28;19942;-75
2022/02/16 03:05:26;;;;;;;;;;;;;;;1.40;100.00;95478.78;1031191;28;19922;-75
2022/02/16 03:05:59;;;;;;;;;;;;;;;1.37;100.00;95473.25;1027401;28;20012;-75
2022/02/16 03:06:29;;;;;;;;;;;;;;;1.42;100.00;95476.78;1027588;28;19954;-75
2022/02/16 03:06:59;;;;;;;;;;;;;;;1.42;100.00;95476.78;1023422;29;19918;-75
2022/02/16 03:07:30;;;;;;;;;;;;;;;1.41;100.00;95477.00;1023453;29;20487;-75
2022/02/16 03:08:00;;;;;;;;;;;;;;;1.39;100.00;95476.41;1023532;28;20416;-75
2022/02/16 03:08:31;;;;;;;;;;;;;;;1.44;100.00;95471.38;1022821;28;19932;-75
2022/02/16 03:09:01;;;;;;;;;;;;;;;1.47;100.00;95477.94;1023490;28;19915;-75
2022/02/16 03:09:32;;;;;;;;;;;;;;;1.51;100.00;95479.91;1023312;29;19918;-75
2022/02/16 03:10:03;;;;;;;;;;;;;;;1.48;100.00;95474.38;1027001;28;19918;-75
2022/02/16 03:10:33;;;;;;;;;;;;;;;1.46;100.00;95482.31;1027094;28;19922;-75
2022/02/16 03:11:03;;;;;;;;;;;;;;;1.46;100.00;95477.16;1027194;28;19946;-75
2022/02/16 03:11:34;;;;;;;;;;;;;;;1.46;100.00;95479.75;1027112;28;19969;-76
2022/02/16 03:12:07;;;;;;;;;;;;;;;1.50;100.00;95467.97;1023348;29;19922;-75
2022/02/16 03:12:37;;;;;;;;;;;;;;;1.51;100.00;95474.75;1023891;28;20408;-75
2022/02/16 03:13:19;;;;;;;;;;;;;;;1.49;100.00;95466.38;1031377;28;20407;-75
2022/02/16 03:13:49;;;;;;;;;;;;;;;1.55;100.00;95475.88;1030592;28;20202;-75
2022/02/16 03:14:19;;;;;;;;;;;;;;;1.57;100.00;95468.69;1036782;28;20945;-75
2022/02/16 03:14:50;;;;;;;;;;;;;;;1.57;100.00;95463.53;1027669;28;19957;-75
2022/02/16 03:15:20;;;;;;;;;;;;;;;1.62;100.00;95465.50;1027080;28;19998;-74
2022/02/16 03:15:51;;;;;;;;;;;;;;;1.65;100.00;95471.03;1015508;29;20247;-75
2022/02/16 03:16:22;;;;;;;;;;;;;;;1.67;100.00;95457.88;1023266;29;19918;-76
2022/02/16 03:16:52;;;;;;;;;;;;;;;1.66;100.00;95456.28;1023097;29;19918;-75
2022/02/16 03:17:25;;;;;;;;;;;;;;;1.66;100.00;95458.88;1023611;28;20087;-75
2022/02/16 03:17:55;;;;;;;;;;;;;;;1.64;100.00;95448.75;1027698;28;20415;-75
2022/02/16 03:18:25;;;;;;;;;;;;;;;1.69;100.00;95462.84;1027272;28;19958;-74
2022/02/16 03:18:55;;;;;;;;;;;;;;;1.70;100.00;95461.81;1027244;28;19922;-75
2022/02/16 03:19:26;;;;;;;;;;;;;;;1.68;100.00;95462.06;1027322;28;20423;-75
2022/02/16 03:19:56;;;;;;;;;;;;;;;1.75;100.00;95459.41;1027147;28;20043;-74
2022/02/16 03:20:26;;;;;;;;;;;;;;;1.77;100.00;95447.03;1026816;28;20013;-75
2022/02/16 03:20:57;;;;;;;;;;;;;;;1.78;100.00;95453.81;1027104;28;19926;-75
2022/02/16 03:21:27;;;;;;;;;;;;;;;1.79;100.00;95457.97;1027057;28;19974;-76
2022/02/16 03:21:58;;;;;;;;;;;;;;;1.79;100.00;95450.22;1026969;28;20372;-75
2022/02/16 03:22:28;;;;;;;;;;;;;;;1.76;100.00;95448.84;1027355;28;19914;-76
2022/02/16 03:23:01;;;;;;;;;;;;;;;1.74;100.00;95450.84;1026999;28;20444;-75
2022/02/16 03:23:31;;;;;;;;;;;;;;;1.77;100.00;95452.22;1027549;28;19950;-75
2022/02/16 03:24:02;;;;;;;;;;;;;;;1.75;100.00;95454.25;1023561;28;19914;-75
2022/02/16 03:24:34;;;;;;;;;;;;;;;1.73;100.00;95445.88;1023239;29;19919;-75
2022/02/16 03:25:05;;;;;;;;;;;;;;;1.72;100.00;95449.50;1023288;29;20401;-74
2022/02/16 03:25:35;;;;;;;;;;;;;;;1.70;100.00;95451.47;1027450;28;19949;-75
2022/02/16 03:26:06;;;;;;;;;;;;;;;1.68;100.00;95448.31;1027702;28;19914;-75
2022/02/16 03:26:36;;;;;;;;;;;;;;;1.71;100.00;95453.06;1031463;28;20008;-75
2022/02/16 03:27:07;;;;;;;;;;;;;;;1.70;100.00;95436.75;1024285;28;19918;-75
2022/02/16 03:27:37;;;;;;;;;;;;;;;1.68;100.00;95451.72;1027552;28;20200;-75
2022/02/16 03:28:11;;;;;;;;;;;;;;;1.64;100.00;95438.41;1027424;28;19965;-75
2022/02/16 03:28:44;;;;;;;;;;;;;;;1.61;100.00;95444.00;1022131;29;19926;-75
2022/02/16 03:29:14;;;;;;;;;;;;;;;1.63;100.00;95441.19;1019338;29;20471;-75
2022/02/16 03:29:45;;;;;;;;;;;;;;;1.62;100.00;95434.47;1021573;28;19926;-75
2022/02/16 03:30:15;;;;;;;;;;;;;;;1.62;100.00;95430.06;1019785;29;19923;-75
2022/02/16 03:30:45;;;;;;;;;;;;;;;1.63;100.00;95442.00;1019295;29;20254;-75
2022/02/16 03:31:15;;;;;;;;;;;;;;;1.61;100.00;95433.66;1019013;29;20335;-76
2022/02/16 03:31:49;;;;;;;;;;;;;;;1.58;100.00;95439.25;1023431;28;19965;-76
2022/02/16 03:32:19;;;;;;;;;;;;;;;1.56;100.00;95441.25;1031203;28;19941;-75
2022/02/16 03:32:49;;;;;;;;;;;;;;;1.54;100.00;95442.47;1030935;28;20434;-75
2022/02/16 03:33:20;;;;;;;;;;;;;;;1.52;100.00;95440.13;1019103;29;20009;-74
2022/02/16 03:33:50;;;;;;;;;;;;;;;1.49;100.00;95435.38;1019324;29;19950;-74
2022/02/16 03:34:20;;;;;;;;;;;;;;;1.49;100.00;95435.38;1019256;29;19919;-75
2022/02/16 03:34:51;;;;;;;;;;;;;;;1.47;100.00;95437.34;1023280;29;19918;-75
2022/02/16 03:35:21;;;;;;;;;;;;;;;1.47;100.00;95437.34;1026734;28;20047;-75
2022/02/16 03:35:52;;;;;;;;;;;;;;;1.44;100.00;95435.19;1027251;28;19920;-75
2022/02/16 03:36:25;;;;;;;;;;;;;;;1.45;100.00;95439.38;1031378;28;19932;-75
2022/02/16 03:36:55;;;;;;;;;;;;;;;1.44;100.00;95435.19;1030335;28;19917;-75
2022/02/16 03:37:25;;;;;;;;;;;;;;;1.42;100.00;95439.81;1030084;28;20411;-75
2022/02/16 03:37:56;;;;;;;;;;;;;;;1.44;100.00;95442.94;1023145;29;19924;-75
2022/02/16 03:38:26;;;;;;;;;;;;;;;1.42;100.00;95435.44;1023467;28;20312;-75
2022/02/16 03:38:57;;;;;;;;;;;;;;;1.41;100.00;95436.44;1026828;28;20005;-75
2022/02/16 03:39:27;;;;;;;;;;;;;;;1.40;100.00;95437.41;1023441;28;19954;-75
2022/02/16 03:39:57;;;;;;;;;;;;;;;1.39;100.00;95435.84;1019517;29;19910;-75
2022/02/16 03:40:32;;;;;;;;;;;;;;;1.39;100.00;95437.66;1023411;29;19918;-75
2022/02/16 03:41:03;;;;;;;;;;;;;;;1.39;100.00;95428.09;1024394;28;20383;-74
2022/02/16 03:41:36;;;;;;;;;;;;;;;1.38;100.00;95425.72;1027304;28;19928;-75
2022/02/16 03:42:07;;;;;;;;;;;;;;;1.37;100.00;95427.50;1024086;28;20543;-75
2022/02/16 03:42:37;;;;;;;;;;;;;;;1.36;100.00;95419.97;1026338;28;20388;-75
2022/02/16 03:43:09;;;;;;;;;;;;;;;1.34;100.00;95429.72;1024683;28;19950;-75
2022/02/16 03:43:39;;;;;;;;;;;;;;;1.34;100.00;95427.13;1027599;28;19922;-75
2022/02/16 03:44:10;;;;;;;;;;;;;;;1.33;100.00;95430.72;1031793;28;20000;-75
2022/02/16 03:44:41;;;;;;;;;;;;;;;1.33;100.00;95425.56;1035551;28;20027;-74
2022/02/16 03:45:11;;;;;;;;;;;;;;;1.34;100.00;95427.13;1031205;28;20025;-75
2022/02/16 03:45:41;;;;;;;;;;;;;;;1.31;100.00;95425.00;1026682;28;19977;-74